createdAt,value
2019-03-22T00:00:31.389Z,6.23
2019-03-22T00:03:00.937Z,10.83
2019-03-22T00:05:30.589Z,5.20
2019-03-22T00:08:00.144Z,6.47
2019-03-22T00:10:29.705Z,4.87
2019-03-22T00:12:59.244Z,6.10
2019-03-22T00:15:28.889Z,7.40
2019-03-22T00:17:58.419Z,4.77
2019-03-22T00:20:27.977Z,4.60
2019-03-22T00:22:57.536Z,5.40
2019-03-22T00:25:27.105Z,5.20
2019-03-22T00:27:56.583Z,8.07
2019-03-22T00:30:26.156Z,6.43
2019-03-22T00:32:55.553Z,5.47
2019-03-22T00:35:25.029Z,10.80
2019-03-22T00:37:54.450Z,6.27
2019-03-22T00:40:23.916Z,8.17
2019-03-22T00:42:53.489Z,9.40
2019-03-22T00:45:22.940Z,7.40
2019-03-22T00:47:52.488Z,7.67
2019-03-22T00:50:22.053Z,19.13
2019-03-22T00:52:51.636Z,14.53
2019-03-22T00:55:21.209Z,15.37
2019-03-22T00:57:50.768Z,13.83
2019-03-22T01:00:20.357Z,16.87
2019-03-22T01:02:49.916Z,13.60
2019-03-22T01:05:19.489Z,18.37
2019-03-22T01:07:49.177Z,22.43
2019-03-22T01:10:18.747Z,30.53
2019-03-22T01:12:48.243Z,27.27
2019-03-22T01:15:17.896Z,27.70
2019-03-22T01:17:47.396Z,33.00
2019-03-22T01:20:16.958Z,43.57
2019-03-22T01:22:46.520Z,44.40
2019-03-22T01:25:16.077Z,52.13
2019-03-22T01:27:45.639Z,66.10
2019-03-22T01:30:15.367Z,79.77
2019-03-22T01:32:44.907Z,74.53
2019-03-22T01:35:14.677Z,85.63
2019-03-22T01:37:44.362Z,100.30
2019-03-22T01:40:14.680Z,109.00
2019-03-22T01:42:44.271Z,123.93
2019-03-22T01:45:14.731Z,147.97
2019-03-22T01:47:44.252Z,154.53
2019-03-22T01:50:14.340Z,167.73
2019-03-22T01:52:43.916Z,173.47
2019-03-22T01:55:13.577Z,223.83
2019-03-22T01:57:52.479Z,226.20
2019-03-22T02:00:15.318Z,249.00
2019-03-22T02:02:44.816Z,231.60
2019-03-22T02:05:15.189Z,247.47
2019-03-22T02:07:44.809Z,279.47
2019-03-22T02:10:14.380Z,299.10
2019-03-22T02:12:43.890Z,301.80
2019-03-22T02:15:13.981Z,339.67
2019-03-22T02:17:43.666Z,356.60
2019-03-22T02:20:13.954Z,371.10
2019-03-22T02:22:43.541Z,392.00
2019-03-22T02:25:13.754Z,400.13
2019-03-22T02:27:43.762Z,413.47
2019-03-22T02:30:13.971Z,419.70
2019-03-22T02:32:43.649Z,430.37
2019-03-22T02:35:27.730Z,437.70
2019-03-22T02:37:44.614Z,446.80
2019-03-22T02:40:14.202Z,467.93
2019-03-22T02:42:43.842Z,474.80
2019-03-22T02:45:14.279Z,461.77
2019-03-22T02:47:43.944Z,464.27
2019-03-22T02:50:18.784Z,477.43
2019-03-22T02:52:45.261Z,493.23
2019-03-22T02:55:15.028Z,502.10
2019-03-22T02:57:44.577Z,492.17
2019-03-22T03:00:14.572Z,507.87
2019-03-22T03:02:44.335Z,517.47
2019-03-22T03:05:14.514Z,508.23
2019-03-22T03:07:44.101Z,518.97
2019-03-22T03:10:14.602Z,534.83
2019-03-22T03:12:44.245Z,533.70
2019-03-22T03:15:14.541Z,535.67
2019-03-22T03:17:44.058Z,535.07
2019-03-22T03:20:14.070Z,519.93
2019-03-22T03:22:43.655Z,540.33
2019-03-22T03:25:13.788Z,534.20
2019-03-22T03:27:43.430Z,560.20
2019-03-22T03:30:14.742Z,548.00
2019-03-22T03:32:44.480Z,555.07
2019-03-22T03:35:14.366Z,543.63
2019-03-22T03:37:43.949Z,562.93
2019-03-22T03:40:13.734Z,540.67
2019-03-22T03:42:43.307Z,550.33
2019-03-22T03:45:29.960Z,550.17
2019-03-22T03:47:59.854Z,563.17
2019-03-22T03:50:29.409Z,553.63
2019-03-22T03:52:59.011Z,552.43
2019-03-22T03:55:28.707Z,551.00
2019-03-22T03:57:58.282Z,550.37
2019-03-22T04:00:27.848Z,548.00
2019-03-22T04:02:57.651Z,533.70
2019-03-22T04:05:27.210Z,536.73
2019-03-22T04:07:56.906Z,529.07
2019-03-22T04:10:26.617Z,555.83
2019-03-22T04:12:56.159Z,533.57
2019-03-22T04:15:27.153Z,513.40
2019-03-22T04:17:56.646Z,545.43
2019-03-22T04:20:26.276Z,528.40
2019-03-22T04:22:55.762Z,509.10
2019-03-22T04:25:25.357Z,521.60
2019-03-22T04:27:54.841Z,509.60
2019-03-22T04:30:24.337Z,497.90
2019-03-22T04:32:53.902Z,510.97
2019-03-22T04:35:23.421Z,499.13
2019-03-22T04:37:52.981Z,505.43
2019-03-22T04:40:27.344Z,504.57
2019-03-22T04:42:56.991Z,482.00
2019-03-22T04:45:28.264Z,493.93
2019-03-22T04:48:09.226Z,471.77
2019-03-22T04:50:41.847Z,466.90
2019-03-22T04:53:15.245Z,475.37
2019-03-22T04:55:48.233Z,477.57
2019-03-22T04:58:20.375Z,465.80
2019-03-22T05:00:51.176Z,467.60
2019-03-22T05:03:21.657Z,458.10
2019-03-22T05:05:52.053Z,455.37
2019-03-22T05:08:23.096Z,444.40
2019-03-22T05:10:54.371Z,444.10
2019-03-22T05:13:25.473Z,432.17
2019-03-22T05:15:56.173Z,437.20
2019-03-22T05:18:26.975Z,432.33
2019-03-22T05:20:56.672Z,418.37
2019-03-22T05:23:27.979Z,416.03
2019-03-22T05:25:59.453Z,422.10
2019-03-22T05:28:30.466Z,414.43
2019-03-22T05:31:36.379Z,381.63
2019-03-22T05:34:05.993Z,388.57
2019-03-22T05:36:35.506Z,410.13
2019-03-22T05:39:07.975Z,361.23
2019-03-22T05:41:37.741Z,381.07
2019-03-22T05:44:07.182Z,372.93
2019-03-22T05:46:36.748Z,353.30
2019-03-22T05:49:06.344Z,348.60
2019-03-22T05:51:35.933Z,374.07
2019-03-22T05:54:05.524Z,342.33
2019-03-22T05:56:35.121Z,320.87
2019-03-22T05:59:04.692Z,319.97
2019-03-22T06:01:34.369Z,312.40
2019-03-22T06:04:04.157Z,317.13
2019-03-22T06:06:33.745Z,317.20
2019-03-22T06:09:04.039Z,309.97
2019-03-22T06:11:33.625Z,308.73
2019-03-22T06:14:03.214Z,287.07
2019-03-22T06:16:32.809Z,276.40
2019-03-22T06:19:02.410Z,253.60
2019-03-22T06:21:32.029Z,265.00
2019-03-22T06:24:01.588Z,272.97
2019-03-22T06:26:31.173Z,239.77
2019-03-22T06:29:00.761Z,239.63
2019-03-22T06:31:30.361Z,251.13
2019-03-22T06:33:59.949Z,229.40
2019-03-22T06:36:29.554Z,220.33
2019-03-22T06:38:59.141Z,223.77
2019-03-22T06:41:28.766Z,226.50
2019-03-22T06:43:58.344Z,218.50
2019-03-22T06:46:27.949Z,210.53
2019-03-22T06:48:57.524Z,205.20
2019-03-22T06:51:27.113Z,192.00
2019-03-22T06:53:56.713Z,203.07
2019-03-22T06:56:26.294Z,184.37
2019-03-22T06:58:55.905Z,188.00
2019-03-22T07:01:25.493Z,181.43
2019-03-22T07:03:55.623Z,179.80
2019-03-22T07:06:25.088Z,168.93
2019-03-22T07:08:54.578Z,163.03
2019-03-22T07:11:24.136Z,182.47
2019-03-22T07:13:53.743Z,154.00
2019-03-22T07:16:23.156Z,151.03
2019-03-22T07:18:52.760Z,156.87
2019-03-22T07:21:22.360Z,150.37
2019-03-22T07:23:52.133Z,162.93
2019-03-22T07:26:21.713Z,134.47
2019-03-22T07:28:51.337Z,132.33
2019-03-22T07:31:21.006Z,136.20
2019-03-22T07:33:50.667Z,138.10
2019-03-22T07:36:20.241Z,133.60
2019-03-22T07:38:49.845Z,120.37
2019-03-22T07:41:19.430Z,139.83
2019-03-22T07:43:49.039Z,125.33
2019-03-22T07:46:18.626Z,134.47
2019-03-22T07:48:48.230Z,113.70
2019-03-22T07:51:17.811Z,102.90
2019-03-22T07:53:47.453Z,108.23
2019-03-22T07:56:17.053Z,109.07
2019-03-22T07:58:46.733Z,102.90
2019-03-22T08:01:16.325Z,95.77
2019-03-22T08:03:45.918Z,89.50
2019-03-22T08:06:15.536Z,81.57
2019-03-22T08:08:45.133Z,85.93
2019-03-22T08:11:14.809Z,76.10
2019-03-22T08:13:44.397Z,82.93
2019-03-22T08:16:14.010Z,75.80
2019-03-22T08:18:43.575Z,74.37
2019-03-22T08:21:13.158Z,80.57
2019-03-22T08:23:42.732Z,70.87
2019-03-22T08:26:12.379Z,73.20
2019-03-22T08:28:41.944Z,77.83
2019-03-22T08:31:11.512Z,59.43
2019-03-22T08:33:40.996Z,67.93
2019-03-22T08:36:10.463Z,64.07
2019-03-22T08:38:40.080Z,58.30
2019-03-22T08:41:09.644Z,53.53
2019-03-22T08:43:39.166Z,58.90
2019-03-22T08:46:08.791Z,53.97
2019-03-22T08:48:38.379Z,50.50
2019-03-22T08:51:08.011Z,57.53
2019-03-22T08:53:37.658Z,44.97
2019-03-22T08:56:07.246Z,46.83
2019-03-22T08:58:36.852Z,49.27
2019-03-22T09:01:06.441Z,45.57
2019-03-22T09:03:36.045Z,51.50
2019-03-22T09:06:07.794Z,49.17
2019-03-22T09:08:36.969Z,42.43
2019-03-22T09:11:06.528Z,43.33
2019-03-22T09:13:36.114Z,46.40
2019-03-22T09:16:05.670Z,39.37
2019-03-22T09:18:35.270Z,39.40
2019-03-22T09:21:05.033Z,38.80
2019-03-22T09:23:35.476Z,38.50
2019-03-22T09:26:05.142Z,35.93
2019-03-22T09:28:34.730Z,34.80
2019-03-22T09:31:10.188Z,37.63
2019-03-22T09:33:35.679Z,35.93
2019-03-22T09:36:05.244Z,32.77
2019-03-22T09:38:34.905Z,34.93
2019-03-22T09:41:04.678Z,34.73
2019-03-22T09:43:34.340Z,34.37
2019-03-22T09:46:03.934Z,34.90
2019-03-22T09:48:33.572Z,28.43
2019-03-22T09:51:03.246Z,33.33
2019-03-22T09:53:32.913Z,26.00
2019-03-22T09:56:02.492Z,27.17
2019-03-22T09:58:32.194Z,23.93
2019-03-22T10:01:01.859Z,25.60
2019-03-22T10:03:31.605Z,24.80
2019-03-22T10:06:01.233Z,22.77
2019-03-22T10:08:30.854Z,26.70
2019-03-22T10:11:00.446Z,30.83
2019-03-22T10:13:30.049Z,31.80
2019-03-22T10:16:00.017Z,31.73
2019-03-22T10:18:29.636Z,34.37
2019-03-22T10:20:59.319Z,33.60
2019-03-22T10:23:28.958Z,30.23
2019-03-22T10:25:58.597Z,29.70
2019-03-22T10:28:28.167Z,31.37
2019-03-22T10:30:57.710Z,30.10
2019-03-22T10:33:27.209Z,28.83
2019-03-22T10:35:56.801Z,34.33
2019-03-22T10:38:31.495Z,25.00
2019-03-22T10:40:57.737Z,28.90
2019-03-22T10:43:27.463Z,38.73
2019-03-22T10:45:57.359Z,30.00
2019-03-22T10:48:27.091Z,26.87
2019-03-22T10:50:56.661Z,32.30
2019-03-22T10:53:26.241Z,26.73
2019-03-22T10:55:55.860Z,23.70
2019-03-22T10:58:25.509Z,19.83
2019-03-22T11:00:55.120Z,22.90
2019-03-22T11:03:24.726Z,65.63
2019-03-22T11:05:54.382Z,63.60
2019-03-22T11:08:23.957Z,94.90
2019-03-22T11:10:53.552Z,108.83
2019-03-22T11:13:23.140Z,140.03
2019-03-22T11:15:52.726Z,134.93
2019-03-22T11:18:22.321Z,117.93
2019-03-22T11:20:51.922Z,114.83
2019-03-22T11:23:21.411Z,113.67
2019-03-22T11:25:51.001Z,122.50
2019-03-22T11:28:20.598Z,120.20
2019-03-22T11:30:50.169Z,99.40
2019-03-22T11:33:19.771Z,110.27
2019-03-22T11:35:49.361Z,101.57
2019-03-22T11:38:18.813Z,94.97
2019-03-22T11:40:48.267Z,89.87
2019-03-22T11:43:17.794Z,92.23
2019-03-22T11:45:47.308Z,88.83
2019-03-22T11:48:16.910Z,69.47
2019-03-22T11:50:46.489Z,75.80
2019-03-22T11:53:16.093Z,76.63
2019-03-22T11:55:45.640Z,67.87
2019-03-22T11:58:15.231Z,53.60
2019-03-22T12:00:44.833Z,69.03
2019-03-22T12:03:14.445Z,66.70
2019-03-22T12:05:44.038Z,53.83
2019-03-22T12:08:13.621Z,59.70
2019-03-22T12:10:43.233Z,50.80
2019-03-22T12:13:12.775Z,55.87
2019-03-22T12:15:42.366Z,50.30
2019-03-22T12:18:11.943Z,50.47
2019-03-22T12:20:41.550Z,43.63
2019-03-22T12:23:11.158Z,51.73
2019-03-22T12:25:40.765Z,60.73
2019-03-22T12:28:10.449Z,48.60
2019-03-22T12:30:40.105Z,45.07
2019-03-22T12:33:09.698Z,41.10
2019-03-22T12:35:39.361Z,42.03
2019-03-22T12:38:08.977Z,45.20
2019-03-22T12:40:38.585Z,32.10
2019-03-22T12:43:08.168Z,42.53
2019-03-22T12:45:37.752Z,38.40
2019-03-22T12:48:07.377Z,35.20
2019-03-22T12:50:36.957Z,36.03
2019-03-22T12:53:06.577Z,34.90
2019-03-22T12:55:36.169Z,39.43
2019-03-22T12:58:05.790Z,31.60
2019-03-22T13:00:35.409Z,32.73
2019-03-22T13:03:05.027Z,38.73
2019-03-22T13:05:34.608Z,27.50
2019-03-22T13:08:04.314Z,28.77
2019-03-22T13:10:33.988Z,30.07
2019-03-22T13:13:03.580Z,36.03
2019-03-22T13:15:33.145Z,30.80
2019-03-22T13:18:02.729Z,27.27
2019-03-22T13:20:32.279Z,32.47
2019-03-22T13:23:01.881Z,26.10
2019-03-22T13:25:31.445Z,26.33
2019-03-22T13:28:01.015Z,30.87
2019-03-22T13:30:34.961Z,25.20
2019-03-22T13:33:04.939Z,26.50
2019-03-22T13:35:34.536Z,34.43
2019-03-22T13:38:04.260Z,58.40
2019-03-22T13:40:33.916Z,73.73
2019-03-22T13:43:03.492Z,98.47
2019-03-22T13:45:33.485Z,125.77
2019-03-22T13:48:03.067Z,113.60
2019-03-22T13:50:32.648Z,116.83
2019-03-22T13:53:02.231Z,93.23
2019-03-22T13:55:31.848Z,87.17
2019-03-22T13:58:01.520Z,103.83
2019-03-22T14:00:31.128Z,115.90
2019-03-22T14:03:03.193Z,89.50
2019-03-22T14:05:32.046Z,86.80
2019-03-22T14:08:01.629Z,89.57
2019-03-22T14:10:32.699Z,57.30
2019-03-22T14:13:03.073Z,66.53
2019-03-22T14:15:32.668Z,76.27
2019-03-22T14:18:02.247Z,53.63
2019-03-22T14:20:31.966Z,58.67
2019-03-22T14:23:01.562Z,58.17
2019-03-22T14:25:31.161Z,58.37
2019-03-22T14:28:00.754Z,49.13
2019-03-22T14:30:30.349Z,56.03
2019-03-22T14:32:59.949Z,43.93
2019-03-22T14:35:29.547Z,47.27
2019-03-22T14:37:59.141Z,49.87
2019-03-22T14:40:28.739Z,40.57
2019-03-22T14:42:58.329Z,40.63
2019-03-22T14:45:27.998Z,38.70
2019-03-22T14:47:57.609Z,37.80
2019-03-22T14:50:27.182Z,47.20
2019-03-22T14:52:56.803Z,32.47
2019-03-22T14:55:26.377Z,37.63
2019-03-22T14:57:55.974Z,42.30
2019-03-22T15:00:25.581Z,35.10
2019-03-22T15:02:55.194Z,36.67
2019-03-22T15:05:24.805Z,35.00
2019-03-22T15:07:54.300Z,33.40
2019-03-22T15:10:23.910Z,32.87
2019-03-22T15:12:53.579Z,27.23
2019-03-22T15:15:48.087Z,22.00
2019-03-22T15:18:32.233Z,30.10
2019-03-22T15:21:19.771Z,28.83
2019-03-22T15:24:10.146Z,30.77
2019-03-22T15:27:04.862Z,28.73
2019-03-22T15:30:10.710Z,23.77
2019-03-22T15:33:01.840Z,28.80
2019-03-22T15:35:44.189Z,27.23
2019-03-22T15:38:36.120Z,19.87
2019-03-22T15:41:05.950Z,21.77
2019-03-22T15:43:35.458Z,19.30
2019-03-22T15:46:05.065Z,20.93
2019-03-22T15:48:34.647Z,22.83
2019-03-22T15:51:04.254Z,18.87
2019-03-22T15:53:35.092Z,17.47
2019-03-22T15:56:04.716Z,16.93
2019-03-22T15:58:34.334Z,12.43
2019-03-22T16:01:04.338Z,17.03
2019-03-22T16:03:43.819Z,13.00
2019-03-22T16:06:05.386Z,13.80
2019-03-22T16:08:34.996Z,17.07
2019-03-22T16:11:04.549Z,15.87
2019-03-22T16:13:34.162Z,17.10
2019-03-22T16:16:03.759Z,12.70
2019-03-22T16:18:33.365Z,14.03
2019-03-22T16:21:02.953Z,12.63
2019-03-22T16:23:32.610Z,14.67
2019-03-22T16:26:02.213Z,13.10
2019-03-22T16:28:31.822Z,14.07
2019-03-22T16:31:01.414Z,19.80
2019-03-22T16:33:31.018Z,12.53
2019-03-22T16:36:00.592Z,12.03
2019-03-22T16:38:30.206Z,17.83
2019-03-22T16:40:59.798Z,14.77
2019-03-22T16:43:29.390Z,12.93
2019-03-22T16:45:58.986Z,12.73
2019-03-22T16:48:28.573Z,12.53
2019-03-22T16:50:58.179Z,15.03
2019-03-22T16:53:27.802Z,12.00
2019-03-22T16:55:57.380Z,12.30
2019-03-22T16:58:26.967Z,9.77
2019-03-22T17:00:56.569Z,11.30
2019-03-22T17:03:26.257Z,13.50
2019-03-22T17:05:55.840Z,12.67
2019-03-22T17:08:25.445Z,15.67
2019-03-22T17:10:55.045Z,9.00
2019-03-22T17:13:24.637Z,11.43
2019-03-22T17:15:54.226Z,14.10
2019-03-22T17:18:24.685Z,11.73
2019-03-22T17:20:54.269Z,8.13
2019-03-22T17:23:23.748Z,9.63
2019-03-22T17:25:53.344Z,9.97
2019-03-22T17:28:22.943Z,9.27
2019-03-22T17:30:52.537Z,10.20
2019-03-22T17:33:22.107Z,8.33
2019-03-22T17:35:51.696Z,10.80
2019-03-22T17:38:21.281Z,11.83
2019-03-22T17:40:50.885Z,11.63
2019-03-22T17:43:20.461Z,8.60
2019-03-22T17:45:50.061Z,9.53
2019-03-22T17:48:19.657Z,11.37
2019-03-22T17:50:49.233Z,10.93
2019-03-22T17:53:18.824Z,8.20
2019-03-22T17:55:48.441Z,8.37
2019-03-22T17:58:18.089Z,11.40
2019-03-22T18:00:47.991Z,8.40
2019-03-22T18:03:17.646Z,10.00
2019-03-22T18:05:47.419Z,10.67
2019-03-22T18:08:17.009Z,11.10
2019-03-22T18:10:46.605Z,12.30
2019-03-22T18:13:16.233Z,10.43
2019-03-22T18:15:45.842Z,10.37
2019-03-22T18:18:15.445Z,11.67
2019-03-22T18:20:44.995Z,10.43
2019-03-22T18:23:14.408Z,9.03
2019-03-22T18:25:44.021Z,15.90
2019-03-22T18:28:13.604Z,9.10
2019-03-22T18:30:43.178Z,11.30
2019-03-22T18:33:12.760Z,11.30
2019-03-22T18:35:42.235Z,9.50
2019-03-22T18:38:11.729Z,8.80
2019-03-22T18:40:41.276Z,10.37
2019-03-22T18:43:10.838Z,11.20
2019-03-22T18:45:40.420Z,17.93
2019-03-22T18:48:09.822Z,10.90
2019-03-22T18:50:39.283Z,11.97
2019-03-22T18:53:08.852Z,10.97
2019-03-22T18:55:38.469Z,12.33
2019-03-22T18:58:08.042Z,9.67
2019-03-22T19:00:37.632Z,11.63
2019-03-22T19:03:07.242Z,10.07
2019-03-22T19:05:36.816Z,8.63
2019-03-22T19:08:06.393Z,11.90
2019-03-22T19:10:35.900Z,8.93
2019-03-22T19:13:05.440Z,9.73
2019-03-22T19:15:35.004Z,14.10
2019-03-22T19:18:04.657Z,16.50
2019-03-22T19:20:34.270Z,9.63
2019-03-22T19:23:03.860Z,9.20
2019-03-22T19:25:33.449Z,8.90
2019-03-22T19:28:03.042Z,8.47
2019-03-22T19:30:32.649Z,11.10
2019-03-22T19:33:02.131Z,8.73
2019-03-22T19:35:31.640Z,9.33
2019-03-22T19:38:01.204Z,7.77
2019-03-22T19:40:30.797Z,8.77
2019-03-22T19:43:00.353Z,8.73
2019-03-22T19:45:29.932Z,7.30
2019-03-22T19:47:59.492Z,8.50
2019-03-22T19:50:29.076Z,10.53
2019-03-22T19:52:59.502Z,11.03
2019-03-22T19:55:29.997Z,6.33
2019-03-22T19:58:00.583Z,12.43
2019-03-22T20:00:31.103Z,9.57
2019-03-22T20:03:01.736Z,8.30
2019-03-22T20:05:33.407Z,7.40
2019-03-22T20:08:04.461Z,8.23
2019-03-22T20:10:36.290Z,7.80
2019-03-22T20:13:06.672Z,8.10
2019-03-22T20:15:37.164Z,8.33
2019-03-22T20:18:07.848Z,7.37
2019-03-22T20:20:38.408Z,7.57
2019-03-22T20:23:09.004Z,8.20
2019-03-22T20:25:38.697Z,7.07
2019-03-22T20:28:08.358Z,7.60
2019-03-22T20:30:37.963Z,7.60
2019-03-22T20:33:07.676Z,8.53
2019-03-22T20:35:37.260Z,8.67
2019-03-22T20:38:06.845Z,8.53
2019-03-22T20:40:36.428Z,7.40
2019-03-22T20:43:06.013Z,8.60
2019-03-22T20:45:35.601Z,8.77
2019-03-22T20:48:05.176Z,7.97
2019-03-22T20:50:35.934Z,7.63
2019-03-22T20:53:05.933Z,9.97
2019-03-22T20:55:35.520Z,7.30
2019-03-22T20:58:05.090Z,9.50
2019-03-22T21:00:34.690Z,7.53
2019-03-22T21:03:04.284Z,7.40
2019-03-22T21:05:33.856Z,9.77
2019-03-22T21:08:03.445Z,9.00
2019-03-22T21:10:32.937Z,8.13
2019-03-22T21:13:02.548Z,7.30
2019-03-22T21:15:32.067Z,11.83
2019-03-22T21:18:01.648Z,7.97
2019-03-22T21:20:31.253Z,12.60
2019-03-22T21:23:00.825Z,8.30
2019-03-22T21:25:30.412Z,8.07
2019-03-22T21:27:59.992Z,7.83
2019-03-22T21:30:30.609Z,13.20
2019-03-22T21:33:01.062Z,8.17
2019-03-22T21:35:37.169Z,9.37
2019-03-22T21:38:10.760Z,13.40
2019-03-22T21:40:36.127Z,8.60
2019-03-22T21:43:06.476Z,8.23
2019-03-22T21:45:36.908Z,6.37
2019-03-22T21:48:07.286Z,8.13
2019-03-22T21:50:37.769Z,7.03
2019-03-22T21:53:08.081Z,9.13
2019-03-22T21:55:37.962Z,7.83
2019-03-22T21:58:07.533Z,8.10
2019-03-22T22:00:37.098Z,9.17
2019-03-22T22:03:06.708Z,6.57
2019-03-22T22:05:36.280Z,8.93
2019-03-22T22:08:05.869Z,6.47
2019-03-22T22:10:35.445Z,6.83
2019-03-22T22:13:05.068Z,6.83
2019-03-22T22:15:34.643Z,7.17
2019-03-22T22:18:04.233Z,7.00
2019-03-22T22:20:33.800Z,8.40
2019-03-22T22:23:03.577Z,6.57
2019-03-22T22:25:33.163Z,9.47
2019-03-22T22:28:02.754Z,6.90
2019-03-22T22:30:32.354Z,8.20
2019-03-22T22:33:01.955Z,6.90
2019-03-22T22:35:31.553Z,6.83
2019-03-22T22:38:01.124Z,8.60
2019-03-22T22:40:30.736Z,8.63
2019-03-22T22:43:00.233Z,9.20
2019-03-22T22:45:29.825Z,7.63
2019-03-22T22:47:59.414Z,7.40
2019-03-22T22:50:29.028Z,9.23
2019-03-22T22:52:59.650Z,6.83
2019-03-22T22:55:29.997Z,8.87
2019-03-22T22:58:00.442Z,7.33
2019-03-22T23:00:31.086Z,8.33
2019-03-22T23:03:01.557Z,7.07
2019-03-22T23:05:32.253Z,7.00
2019-03-22T23:08:02.608Z,6.27
2019-03-22T23:10:33.145Z,5.93
2019-03-22T23:13:03.624Z,7.40
2019-03-22T23:15:33.927Z,6.03
2019-03-22T23:18:04.393Z,5.83
2019-03-22T23:20:34.797Z,6.13
2019-03-22T23:23:05.335Z,5.60
2019-03-22T23:25:36.059Z,6.03
2019-03-22T23:28:06.600Z,6.60
2019-03-22T23:30:36.252Z,7.20
2019-03-22T23:33:05.849Z,7.97
2019-03-22T23:35:35.448Z,7.53
2019-03-22T23:38:05.009Z,7.97
2019-03-22T23:40:34.614Z,6.47
2019-03-22T23:43:04.206Z,5.77
2019-03-22T23:45:33.768Z,5.57
2019-03-22T23:48:03.351Z,6.97
2019-03-22T23:50:32.836Z,6.77
2019-03-22T23:53:02.516Z,8.00
2019-03-22T23:55:32.093Z,6.40
2019-03-22T23:58:01.691Z,7.03
